Time;durP1;ratioP1;P1;durP2;ratioP2;P2;SDS_P1;SDS_P2;PMS_P1;PMS_P2;Temp;Humidity;BMP_temperature;BMP_pressure;BME280_temperature;BME280_humidity;BME280_pressure;Samples;Min_cycle;Max_cycle;Signal;HPM_P1;HPM_P2
2023/12/28 20:42:05;;;;;;;8.48;5.25;;;;;;;13.05;71.40;99595.03;5302592;23;20108;-86
2023/12/28 20:44:31;;;;;;;9.35;5.88;;;;;;;12.99;70.72;99582.38;4937529;29;20079;-89
2023/12/28 20:46:56;;;;;;;17.30;6.38;;;;;;;13.31;75.63;99594.91;4928057;29;20032;-92
2023/12/28 20:51:53;;;;;;;10.60;5.93;;;;;;;13.15;68.70;99569.00;5069959;23;20059;-91
2023/12/28 20:54:20;;;;;;;21.33;6.45;;;;;;;13.27;69.29;99598.72;4931346;29;20027;-80
2023/12/28 20:56:45;;;;;;;12.77;6.15;;;;;;;13.19;69.27;99583.56;4945297;29;20031;-87
2023/12/28 20:59:11;;;;;;;14.18;6.82;;;;;;;13.28;70.43;99592.50;4910735;29;20487;-80
2023/12/28 21:01:37;;;;;;;15.70;6.90;;;;;;;13.23;68.07;99595.47;4938921;29;20038;-87
2023/12/28 21:04:03;;;;;;;9.68;6.00;;;;;;;13.16;65.84;99592.47;4938929;29;20465;-79
2023/12/28 21:06:28;;;;;;;11.40;6.07;;;;;;;13.08;64.25;99588.72;4938995;29;20035;-82
2023/12/28 21:08:54;;;;;;;9.77;5.45;;;;;;;12.98;63.87;99578.94;4906248;28;20054;-80
2023/12/28 21:11:19;;;;;;;11.27;5.63;;;;;;;12.89;63.34;99578.75;4938867;29;20423;-82
2023/12/28 21:13:47;;;;;;;8.40;5.38;;;;;;;12.72;62.73;99567.72;4922867;29;20070;-81
2023/12/28 21:16:12;;;;;;;6.93;4.70;;;;;;;12.67;62.45;99570.66;4907546;29;20038;-83
2023/12/28 21:18:38;;;;;;;7.35;4.88;;;;;;;12.60;61.41;99565.97;4922796;29;20027;-79
2023/12/28 21:21:04;;;;;;;7.72;4.28;;;;;;;12.53;61.08;99564.75;4923106;29;20073;-80
2023/12/28 21:23:29;;;;;;;12.65;4.38;;;;;;;12.49;61.67;99551.00;4922958;29;20518;-83
2023/12/28 21:25:55;;;;;;;10.27;4.80;;;;;;;12.38;60.63;99543.94;4938648;29;20035;-79
2023/12/28 21:28:20;;;;;;;10.60;4.60;;;;;;;12.36;60.16;99548.44;4922689;29;20510;-78
2023/12/28 21:30:46;;;;;;;9.07;4.22;;;;;;;12.30;59.74;99548.84;4922408;29;20419;-78
2023/12/28 21:33:11;;;;;;;8.52;4.38;;;;;;;12.22;59.43;99540.72;4906724;29;20035;-80
2023/12/28 21:35:37;;;;;;;14.30;4.60;;;;;;;12.09;59.17;99530.28;4923044;29;20061;-79
2023/12/28 21:38:07;;;;;;;6.95;3.95;;;;;;;12.09;58.94;99530.28;4922216;29;20086;-79
2023/12/28 21:40:36;;;;;;;6.40;3.90;;;;;;;12.03;58.35;99530.69;4923836;29;20128;-79
2023/12/28 21:43:02;;;;;;;6.57;3.97;;;;;;;11.93;58.10;99531.34;4923211;29;20567;-79
2023/12/28 21:45:29;;;;;;;5.53;3.80;;;;;;;11.88;57.62;99529.97;4938442;29;20403;-79
2023/12/28 21:47:54;;;;;;;6.53;4.07;;;;;;;11.83;57.23;99532.91;4922409;29;20040;-79
2023/12/28 21:50:20;;;;;;;5.78;4.07;;;;;;;11.73;56.72;99524.84;4906654;28;20467;-80
2023/12/28 21:52:47;;;;;;;7.50;4.50;;;;;;;11.72;56.42;99525.78;4922549;29;20368;-79
2023/12/28 21:55:13;;;;;;;10.90;4.55;;;;;;;11.67;56.02;99530.50;4922450;29;20429;-79
2023/12/28 21:57:38;;;;;;;7.65;4.75;;;;;;;11.61;55.57;99525.69;4937812;29;20023;-79
2023/12/28 22:00:05;;;;;;;9.63;5.07;;;;;;;11.55;55.28;99521.69;4921909;29;20031;-80
2023/12/28 22:02:30;;;;;;;7.40;4.70;;;;;;;11.47;55.25;99512.72;4922409;29;20074;-79
2023/12/28 22:04:56;;;;;;;6.82;4.63;;;;;;;11.41;55.22;99512.16;4938138;29;20487;-79
2023/12/28 22:07:21;;;;;;;6.57;4.60;;;;;;;11.44;54.31;99520.75;4937649;29;20038;-78
2023/12/28 22:09:47;;;;;;;9.10;5.22;;;;;;;11.32;54.71;99512.81;4922349;29;20035;-77
2023/12/28 22:12:12;;;;;;;7.25;4.78;;;;;;;11.32;54.07;99511.94;4921835;29;20390;-79
2023/12/28 22:14:38;;;;;;;8.20;5.50;;;;;;;11.24;54.42;99502.00;4921625;29;20058;-79
2023/12/28 22:17:04;;;;;;;9.50;5.28;;;;;;;11.26;54.32;99515.81;4921670;29;20046;-79
2023/12/28 22:19:30;;;;;;;7.72;5.18;;;;;;;11.21;53.96;99507.44;4921685;29;20594;-78
2023/12/28 22:21:56;;;;;;;6.88;4.72;;;;;;;11.20;53.89;99511.00;4953096;28;20027;-79
2023/12/28 22:24:21;;;;;;;8.95;5.18;;;;;;;11.17;54.09;99512.03;4921541;29;20058;-79
2023/12/28 22:26:47;;;;;;;7.85;5.13;;;;;;;11.14;53.84;99507.00;4921417;29;20055;-78
2023/12/28 22:29:13;;;;;;;7.28;4.90;;;;;;;11.07;53.42;99491.84;4937707;29;20047;-78
2023/12/28 22:31:38;;;;;;;7.88;4.85;;;;;;;11.05;53.46;99478.88;4953072;29;20027;-78
2023/12/28 22:34:04;;;;;;;7.50;4.57;;;;;;;11.07;53.63;99490.06;4937283;29;20055;-77
2023/12/28 22:36:30;;;;;;;11.15;4.97;;;;;;;11.03;53.56;99478.13;4921568;29;20026;-77
2023/12/28 22:38:57;;;;;;;10.02;4.50;;;;;;;11.02;53.25;99482.53;4921572;29;20062;-79
2023/12/28 22:41:23;;;;;;;6.97;4.30;;;;;;;10.98;53.17;99475.84;4945690;29;20062;-86
2023/12/28 22:43:48;;;;;;;8.68;4.43;;;;;;;10.97;53.33;99470.72;4937370;29;20470;-78
2023/12/28 22:46:14;;;;;;;7.20;4.75;;;;;;;10.95;53.11;99465.59;4936498;29;20042;-79
2023/12/28 22:48:39;;;;;;;6.60;4.30;;;;;;;10.93;52.78;99464.84;4905642;29;20058;-79
2023/12/28 22:51:06;;;;;;;8.77;4.57;;;;;;;10.88;52.96;99456.50;4905215;29;20495;-78
2023/12/28 22:53:31;;;;;;;6.85;4.43;;;;;;;10.90;52.67;99456.41;4937314;29;20027;-79
2023/12/28 22:55:58;;;;;;;8.38;4.55;;;;;;;10.91;52.71;99458.91;4921219;29;20419;-78
2023/12/28 22:58:23;;;;;;;7.65;4.10;;;;;;;10.88;52.60;99458.25;4953195;29;20110;-79
2023/12/28 23:00:50;;;;;;;5.72;3.90;;;;;;;10.85;52.71;99456.69;4920916;29;20042;-79
2023/12/28 23:03:15;;;;;;;8.00;4.22;;;;;;;10.81;52.46;99453.44;4921269;29;20032;-79
2023/12/28 23:05:41;;;;;;;6.53;3.88;;;;;;;10.79;52.38;99457.09;4937358;29;20474;-77
2023/12/28 23:08:06;;;;;;;5.63;3.85;;;;;;;10.75;52.14;99451.22;4921071;29;20114;-77
2023/12/28 23:10:32;;;;;;;5.68;4.07;;;;;;;10.76;52.19;99462.53;4920964;29;20043;-79
2023/12/28 23:13:00;;;;;;;7.00;4.22;;;;;;;10.63;52.11;99452.88;4920791;29;20094;-78
2023/12/28 23:15:28;;;;;;;8.07;3.85;;;;;;;10.68;52.29;99456.00;4921099;29;20027;-78
2023/12/28 23:17:56;;;;;;;5.20;3.45;;;;;;;10.65;51.64;99451.00;4920996;29;20027;-77
2023/12/28 23:20:22;;;;;;;5.68;3.78;;;;;;;10.65;51.88;99439.72;4920584;29;20053;-79
2023/12/28 23:22:47;;;;;;;9.35;3.92;;;;;;;10.66;51.74;99438.78;4936546;29;20114;-77
2023/12/28 23:25:17;;;;;;;7.28;3.75;;;;;;;10.64;51.80;99444.13;4936636;29;20027;-78
2023/12/28 23:27:43;;;;;;;6.72;3.90;;;;;;;10.60;52.00;99433.97;4921236;29;20570;-77
2023/12/28 23:30:10;;;;;;;7.32;4.20;;;;;;;10.58;51.59;99431.47;4936765;29;20385;-79
2023/12/28 23:32:35;;;;;;;6.90;3.65;;;;;;;10.53;51.44;99430.94;4936655;29;20390;-79
2023/12/28 23:35:01;;;;;;;6.97;3.88;;;;;;;10.52;51.71;99433.63;4923985;29;20028;-79
2023/12/28 23:37:27;;;;;;;7.88;3.80;;;;;;;10.51;51.82;99427.56;4940609;29;20036;-78
2023/12/28 23:39:53;;;;;;;6.28;3.83;;;;;;;10.48;51.35;99420.78;4924262;29;20078;-78
2023/12/28 23:42:19;;;;;;;5.68;3.75;;;;;;;10.44;51.42;99414.06;4940469;29;20069;-79
2023/12/28 23:44:44;;;;;;;6.80;3.92;;;;;;;10.43;51.24;99414.16;4940029;29;20118;-78
2023/12/28 23:47:10;;;;;;;7.40;4.57;;;;;;;10.36;51.16;99416.34;4923978;29;20031;-77
2023/12/28 23:49:35;;;;;;;7.63;4.55;;;;;;;10.36;51.27;99412.88;4939848;29;20039;-78
2023/12/28 23:52:01;;;;;;;6.63;4.50;;;;;;;10.38;51.25;99416.25;4923968;29;20494;-78
2023/12/28 23:54:30;;;;;;;7.78;4.75;;;;;;;10.37;51.34;99414.56;4924288;29;20059;-78
2023/12/28 23:56:55;;;;;;;7.03;4.18;;;;;;;10.31;51.39;99405.34;4924210;29;20042;-78
2023/12/28 23:59:21;;;;;;;9.40;4.50;;;;;;;10.32;51.40;99413.06;4923695;29;20471;-79
